sensor_id;sensor_type;location;lat;lon;timestamp;temperature;humidity
47168;DHT22;32931;47.778;17.806;2022-10-04T00:03:52;12.40;99.90
47168;DHT22;32931;47.778;17.806;2022-10-04T00:06:26;12.40;99.90
47168;DHT22;32931;47.778;17.806;2022-10-04T00:09:03;12.40;99.90
47168;DHT22;32931;47.778;17.806;2022-10-04T00:11:34;12.40;99.90
47168;DHT22;32931;47.778;17.806;2022-10-04T00:14:07;12.40;99.90
47168;DHT22;32931;47.778;17.806;2022-10-04T00:16:39;12.50;99.90
47168;DHT22;32931;47.778;17.806;2022-10-04T00:24:22;12.60;99.90
47168;DHT22;32931;47.778;17.806;2022-10-04T00:27:18;12.60;99.90
47168;DHT22;32931;47.778;17.806;2022-10-04T00:32:46;12.60;99.90
47168;DHT22;32931;47.778;17.806;2022-10-04T00:41:00;12.70;99.90
47168;DHT22;32931;47.778;17.806;2022-10-04T00:43:39;12.70;99.90
47168;DHT22;32931;47.778;17.806;2022-10-04T00:46:20;12.70;99.90
47168;DHT22;32931;47.778;17.806;2022-10-04T00:48:58;12.70;99.90
47168;DHT22;32931;47.778;17.806;2022-10-04T00:51:41;12.80;99.90
47168;DHT22;32931;47.778;17.806;2022-10-04T00:57:06;12.90;99.90
47168;DHT22;32931;47.778;17.806;2022-10-04T01:02:24;12.90;99.90
47168;DHT22;32931;47.778;17.806;2022-10-04T01:07:34;12.80;99.90
47168;DHT22;32931;47.778;17.806;2022-10-04T01:15:51;12.80;99.90
47168;DHT22;32931;47.778;17.806;2022-10-04T01:20:55;12.90;99.90
47168;DHT22;32931;47.778;17.806;2022-10-04T01:23:38;12.90;99.90
47168;DHT22;32931;47.778;17.806;2022-10-04T01:28:55;12.90;99.90
47168;DHT22;32931;47.778;17.806;2022-10-04T01:31:28;12.90;99.90
47168;DHT22;32931;47.778;17.806;2022-10-04T01:33:55;13.00;99.90
47168;DHT22;32931;47.778;17.806;2022-10-04T01:36:21;13.00;99.90
47168;DHT22;32931;47.778;17.806;2022-10-04T01:38:48;13.00;99.90
47168;DHT22;32931;47.778;17.806;2022-10-04T01:41:19;13.00;99.90
47168;DHT22;32931;47.778;17.806;2022-10-04T01:43:49;13.00;99.90
47168;DHT22;32931;47.778;17.806;2022-10-04T01:46:30;13.00;99.90
47168;DHT22;32931;47.778;17.806;2022-10-04T01:49:00;13.00;99.90
47168;DHT22;32931;47.778;17.806;2022-10-04T01:51:30;12.90;99.90
47168;DHT22;32931;47.778;17.806;2022-10-04T01:54:07;12.90;99.90
47168;DHT22;32931;47.778;17.806;2022-10-04T01:59:27;12.90;99.90
47168;DHT22;32931;47.778;17.806;2022-10-04T02:02:31;12.90;99.90
47168;DHT22;32931;47.778;17.806;2022-10-04T02:05:02;12.90;99.90
47168;DHT22;32931;47.778;17.806;2022-10-04T02:07:31;12.90;99.90
47168;DHT22;32931;47.778;17.806;2022-10-04T02:10:02;12.80;99.90
47168;DHT22;32931;47.778;17.806;2022-10-04T02:12:30;12.80;99.90
47168;DHT22;32931;47.778;17.806;2022-10-04T02:14:59;12.80;99.90
47168;DHT22;32931;47.778;17.806;2022-10-04T02:17:29;12.80;99.90
47168;DHT22;32931;47.778;17.806;2022-10-04T02:19:56;12.80;99.90
47168;DHT22;32931;47.778;17.806;2022-10-04T02:22:25;12.80;99.90
47168;DHT22;32931;47.778;17.806;2022-10-04T02:24:53;12.80;99.90
47168;DHT22;32931;47.778;17.806;2022-10-04T02:27:26;12.80;99.90
47168;DHT22;32931;47.778;17.806;2022-10-04T02:30:06;12.80;99.90
47168;DHT22;32931;47.778;17.806;2022-10-04T02:32:33;12.80;99.90
47168;DHT22;32931;47.778;17.806;2022-10-04T02:35:19;12.80;99.90
47168;DHT22;32931;47.778;17.806;2022-10-04T02:37:48;12.80;99.90
47168;DHT22;32931;47.778;17.806;2022-10-04T02:40:21;12.80;99.90
47168;DHT22;32931;47.778;17.806;2022-10-04T02:43:02;12.80;99.90
47168;DHT22;32931;47.778;17.806;2022-10-04T02:45:50;12.80;99.90
47168;DHT22;32931;47.778;17.806;2022-10-04T02:48:29;12.80;99.90
47168;DHT22;32931;47.778;17.806;2022-10-04T02:51:06;12.80;99.90
47168;DHT22;32931;47.778;17.806;2022-10-04T02:56:23;12.80;99.90
47168;DHT22;32931;47.778;17.806;2022-10-04T02:58:51;12.80;99.90
47168;DHT22;32931;47.778;17.806;2022-10-04T03:04:14;12.70;99.90
47168;DHT22;32931;47.778;17.806;2022-10-04T03:06:42;12.60;99.90
47168;DHT22;32931;47.778;17.806;2022-10-04T03:09:13;12.60;99.90
47168;DHT22;32931;47.778;17.806;2022-10-04T03:11:40;12.70;99.90
47168;DHT22;32931;47.778;17.806;2022-10-04T03:14:12;12.60;99.90
47168;DHT22;32931;47.778;17.806;2022-10-04T03:16:42;12.70;99.90
47168;DHT22;32931;47.778;17.806;2022-10-04T03:19:11;12.60;99.90
47168;DHT22;32931;47.778;17.806;2022-10-04T03:21:39;12.60;99.90
47168;DHT22;32931;47.778;17.806;2022-10-04T03:24:10;12.60;99.90
47168;DHT22;32931;47.778;17.806;2022-10-04T03:26:45;12.70;99.90
47168;DHT22;32931;47.778;17.806;2022-10-04T03:29:14;12.70;99.90
47168;DHT22;32931;47.778;17.806;2022-10-04T03:31:43;12.70;99.90
47168;DHT22;32931;47.778;17.806;2022-10-04T03:34:25;12.60;99.90
47168;DHT22;32931;47.778;17.806;2022-10-04T03:36:54;12.60;99.90
47168;DHT22;32931;47.778;17.806;2022-10-04T03:39:30;12.60;99.90
47168;DHT22;32931;47.778;17.806;2022-10-04T03:42:11;12.50;99.90
47168;DHT22;32931;47.778;17.806;2022-10-04T03:44:38;12.50;99.90
47168;DHT22;32931;47.778;17.806;2022-10-04T03:47:10;12.60;99.90
47168;DHT22;32931;47.778;17.806;2022-10-04T03:49:37;12.70;99.90
47168;DHT22;32931;47.778;17.806;2022-10-04T03:52:06;12.70;99.90
47168;DHT22;32931;47.778;17.806;2022-10-04T03:54:38;12.70;99.90
47168;DHT22;32931;47.778;17.806;2022-10-04T03:57:05;12.60;99.90
47168;DHT22;32931;47.778;17.806;2022-10-04T03:59:32;12.60;99.90
47168;DHT22;32931;47.778;17.806;2022-10-04T04:02:30;12.70;99.90
47168;DHT22;32931;47.778;17.806;2022-10-04T04:07:38;12.70;99.90
47168;DHT22;32931;47.778;17.806;2022-10-04T04:10:25;12.70;99.90
47168;DHT22;32931;47.778;17.806;2022-10-04T04:12:53;12.70;99.90
47168;DHT22;32931;47.778;17.806;2022-10-04T04:15:21;12.70;99.90
47168;DHT22;32931;47.778;17.806;2022-10-04T04:17:51;12.70;99.90
47168;DHT22;32931;47.778;17.806;2022-10-04T04:20:24;12.70;99.90
47168;DHT22;32931;47.778;17.806;2022-10-04T04:25:33;12.70;99.90
47168;DHT22;32931;47.778;17.806;2022-10-04T04:28:30;12.70;99.90
47168;DHT22;32931;47.778;17.806;2022-10-04T04:34:04;12.70;99.90
47168;DHT22;32931;47.778;17.806;2022-10-04T04:36:38;12.70;99.90
47168;DHT22;32931;47.778;17.806;2022-10-04T04:39:19;12.70;99.90
47168;DHT22;32931;47.778;17.806;2022-10-04T04:42:14;12.70;99.90
47168;DHT22;32931;47.778;17.806;2022-10-04T04:47:38;12.70;99.90
47168;DHT22;32931;47.778;17.806;2022-10-04T04:50:20;12.70;99.90
47168;DHT22;32931;47.778;17.806;2022-10-04T04:52:54;12.80;99.90
47168;DHT22;32931;47.778;17.806;2022-10-04T04:55:25;12.70;99.90
47168;DHT22;32931;47.778;17.806;2022-10-04T04:57:56;12.70;99.90
47168;DHT22;32931;47.778;17.806;2022-10-04T05:00:28;12.70;99.90
47168;DHT22;32931;47.778;17.806;2022-10-04T05:02:57;12.80;99.90
47168;DHT22;32931;47.778;17.806;2022-10-04T05:05:31;12.80;99.90
47168;DHT22;32931;47.778;17.806;2022-10-04T05:10:50;12.70;99.90
47168;DHT22;32931;47.778;17.806;2022-10-04T05:13:21;12.80;99.90
47168;DHT22;32931;47.778;17.806;2022-10-04T05:15:53;12.80;99.90
47168;DHT22;32931;47.778;17.806;2022-10-04T05:18:31;12.80;99.90
47168;DHT22;32931;47.778;17.806;2022-10-04T05:23:42;12.90;99.90
47168;DHT22;32931;47.778;17.806;2022-10-04T05:26:10;12.90;99.90
47168;DHT22;32931;47.778;17.806;2022-10-04T05:28:38;12.90;99.90
47168;DHT22;32931;47.778;17.806;2022-10-04T05:33:57;12.90;99.90
47168;DHT22;32931;47.778;17.806;2022-10-04T05:36:36;12.90;99.90
47168;DHT22;32931;47.778;17.806;2022-10-04T05:39:32;13.00;99.90
47168;DHT22;32931;47.778;17.806;2022-10-04T05:42:19;13.00;99.90
47168;DHT22;32931;47.778;17.806;2022-10-04T05:44:53;13.00;99.90
47168;DHT22;32931;47.778;17.806;2022-10-04T05:47:21;13.00;99.90
47168;DHT22;32931;47.778;17.806;2022-10-04T05:49:55;13.00;99.90
47168;DHT22;32931;47.778;17.806;2022-10-04T05:52:32;13.00;99.90
47168;DHT22;32931;47.778;17.806;2022-10-04T05:55:23;13.00;99.90
47168;DHT22;32931;47.778;17.806;2022-10-04T06:03:25;13.10;99.90
47168;DHT22;32931;47.778;17.806;2022-10-04T06:05:55;13.10;99.90
47168;DHT22;32931;47.778;17.806;2022-10-04T06:23:01;13.20;99.90
47168;DHT22;32931;47.778;17.806;2022-10-04T06:25:35;13.20;99.90
47168;DHT22;32931;47.778;17.806;2022-10-04T06:28:15;13.20;99.90
47168;DHT22;32931;47.778;17.806;2022-10-04T06:31:27;13.20;99.90
47168;DHT22;32931;47.778;17.806;2022-10-04T06:53:26;13.50;99.90
47168;DHT22;32931;47.778;17.806;2022-10-04T06:59:20;13.50;99.90
47168;DHT22;32931;47.778;17.806;2022-10-04T07:01:57;13.60;99.90
47168;DHT22;32931;47.778;17.806;2022-10-04T07:04:33;13.60;99.90
47168;DHT22;32931;47.778;17.806;2022-10-04T07:12:32;13.70;99.90
47168;DHT22;32931;47.778;17.806;2022-10-04T07:15:02;13.60;99.90
47168;DHT22;32931;47.778;17.806;2022-10-04T07:17:35;13.70;99.90
47168;DHT22;32931;47.778;17.806;2022-10-04T07:20:04;13.70;99.90
47168;DHT22;32931;47.778;17.806;2022-10-04T07:23:07;13.80;99.90
47168;DHT22;32931;47.778;17.806;2022-10-04T07:25:42;13.80;99.90
47168;DHT22;32931;47.778;17.806;2022-10-04T07:28:14;13.80;99.90
47168;DHT22;32931;47.778;17.806;2022-10-04T07:31:03;13.90;99.90
47168;DHT22;32931;47.778;17.806;2022-10-04T07:42:06;13.90;99.90
47168;DHT22;32931;47.778;17.806;2022-10-04T07:44:45;14.00;99.90
47168;DHT22;32931;47.778;17.806;2022-10-04T07:47:21;14.00;99.90
47168;DHT22;32931;47.778;17.806;2022-10-04T07:49:49;14.10;99.90
47168;DHT22;32931;47.778;17.806;2022-10-04T07:52:19;14.10;99.90
47168;DHT22;32931;47.778;17.806;2022-10-04T08:00:33;14.20;99.90
47168;DHT22;32931;47.778;17.806;2022-10-04T08:03:38;14.20;99.90
47168;DHT22;32931;47.778;17.806;2022-10-04T08:09:26;14.30;99.90
47168;DHT22;32931;47.778;17.806;2022-10-04T08:12:33;14.30;99.90
47168;DHT22;32931;47.778;17.806;2022-10-04T08:18:04;14.50;99.90
47168;DHT22;32931;47.778;17.806;2022-10-04T08:20:47;14.50;99.90
47168;DHT22;32931;47.778;17.806;2022-10-04T08:23:19;14.50;99.90
47168;DHT22;32931;47.778;17.806;2022-10-04T08:25:58;14.50;99.90
47168;DHT22;32931;47.778;17.806;2022-10-04T08:31:37;14.60;99.90
47168;DHT22;32931;47.778;17.806;2022-10-04T08:40:02;14.60;99.90
47168;DHT22;32931;47.778;17.806;2022-10-04T08:57:57;14.70;99.90
47168;DHT22;32931;47.778;17.806;2022-10-04T09:09:17;14.90;99.90
47168;DHT22;32931;47.778;17.806;2022-10-04T09:22:46;15.10;99.90
47168;DHT22;32931;47.778;17.806;2022-10-04T09:28:11;15.20;99.90
47168;DHT22;32931;47.778;17.806;2022-10-04T09:46:25;15.50;99.90
47168;DHT22;32931;47.778;17.806;2022-10-04T09:54:09;15.70;99.90
47168;DHT22;32931;47.778;17.806;2022-10-04T09:59:48;15.90;99.90
47168;DHT22;32931;47.778;17.806;2022-10-04T10:08:08;16.40;99.90
47168;DHT22;32931;47.778;17.806;2022-10-04T10:36:23;16.80;99.90
47168;DHT22;32931;47.778;17.806;2022-10-04T10:44:20;16.40;99.90
47168;DHT22;32931;47.778;17.806;2022-10-04T10:52:24;16.30;99.90
47168;DHT22;32931;47.778;17.806;2022-10-04T11:28:42;16.30;99.90
47168;DHT22;32931;47.778;17.806;2022-10-04T11:58:19;16.90;99.90
47168;DHT22;32931;47.778;17.806;2022-10-04T12:01:21;17.00;99.90
47168;DHT22;32931;47.778;17.806;2022-10-04T12:10:28;17.10;99.90
47168;DHT22;32931;47.778;17.806;2022-10-04T12:13:05;17.10;99.90
47168;DHT22;32931;47.778;17.806;2022-10-04T12:18:45;16.90;99.90
47168;DHT22;32931;47.778;17.806;2022-10-04T12:27:03;16.80;99.90
47168;DHT22;32931;47.778;17.806;2022-10-04T12:41:35;16.70;99.90
47168;DHT22;32931;47.778;17.806;2022-10-04T12:44:19;16.70;99.90
47168;DHT22;32931;47.778;17.806;2022-10-04T12:47:04;16.70;99.90
47168;DHT22;32931;47.778;17.806;2022-10-04T12:49:42;16.60;99.90
47168;DHT22;32931;47.778;17.806;2022-10-04T12:57:58;16.60;99.90
47168;DHT22;32931;47.778;17.806;2022-10-04T13:00:25;16.60;99.90
47168;DHT22;32931;47.778;17.806;2022-10-04T13:03:34;16.60;99.90
47168;DHT22;32931;47.778;17.806;2022-10-04T13:06:17;16.60;99.90
47168;DHT22;32931;47.778;17.806;2022-10-04T13:09:13;16.60;99.90
47168;DHT22;32931;47.778;17.806;2022-10-04T13:14:47;16.60;99.90
47168;DHT22;32931;47.778;17.806;2022-10-04T13:25:59;16.70;99.90
47168;DHT22;32931;47.778;17.806;2022-10-04T13:45:01;16.90;99.90
47168;DHT22;32931;47.778;17.806;2022-10-04T13:53:20;16.90;99.90
47168;DHT22;32931;47.778;17.806;2022-10-04T14:28:23;17.10;99.90
47168;DHT22;32931;47.778;17.806;2022-10-04T14:31:52;17.10;99.90
47168;DHT22;32931;47.778;17.806;2022-10-04T14:45:19;17.00;99.90
47168;DHT22;32931;47.778;17.806;2022-10-04T15:07:36;17.30;99.90
47168;DHT22;32931;47.778;17.806;2022-10-04T15:20:28;17.20;99.90
47168;DHT22;32931;47.778;17.806;2022-10-04T15:23:15;17.30;99.90
47168;DHT22;32931;47.778;17.806;2022-10-04T15:25:52;17.20;99.90
47168;DHT22;32931;47.778;17.806;2022-10-04T15:39:39;16.90;99.90
47168;DHT22;32931;47.778;17.806;2022-10-04T15:42:33;16.90;99.90
47168;DHT22;32931;47.778;17.806;2022-10-04T15:50:57;16.80;99.90
47168;DHT22;32931;47.778;17.806;2022-10-04T15:53:53;16.80;99.90
47168;DHT22;32931;47.778;17.806;2022-10-04T15:56:41;16.70;99.90
47168;DHT22;32931;47.778;17.806;2022-10-04T16:10:55;16.50;99.90
47168;DHT22;32931;47.778;17.806;2022-10-04T16:21:17;16.20;99.90
47168;DHT22;32931;47.778;17.806;2022-10-04T16:32:27;15.90;99.90
47168;DHT22;32931;47.778;17.806;2022-10-04T16:36:02;15.80;99.90
47168;DHT22;32931;47.778;17.806;2022-10-04T16:48:21;15.50;99.90
47168;DHT22;32931;47.778;17.806;2022-10-04T16:55:50;15.40;99.90
47168;DHT22;32931;47.778;17.806;2022-10-04T17:09:31;15.00;99.90
47168;DHT22;32931;47.778;17.806;2022-10-04T17:23:17;14.70;99.90
47168;DHT22;32931;47.778;17.806;2022-10-04T17:25:49;14.70;99.90
47168;DHT22;32931;47.778;17.806;2022-10-04T17:28:47;14.60;99.90
47168;DHT22;32931;47.778;17.806;2022-10-04T17:37:10;14.60;99.90
47168;DHT22;32931;47.778;17.806;2022-10-04T17:39:39;14.50;99.90
47168;DHT22;32931;47.778;17.806;2022-10-04T17:47:40;14.30;99.90
47168;DHT22;32931;47.778;17.806;2022-10-04T17:53:26;14.30;99.90
47168;DHT22;32931;47.778;17.806;2022-10-04T17:56:13;14.20;99.90
47168;DHT22;32931;47.778;17.806;2022-10-04T17:58:50;14.20;99.90
47168;DHT22;32931;47.778;17.806;2022-10-04T18:01:29;14.10;99.90
47168;DHT22;32931;47.778;17.806;2022-10-04T18:06:56;14.00;99.90
47168;DHT22;32931;47.778;17.806;2022-10-04T18:09:44;14.00;99.90
47168;DHT22;32931;47.778;17.806;2022-10-04T18:17:47;14.00;99.90
47168;DHT22;32931;47.778;17.806;2022-10-04T18:20:30;13.90;99.90
47168;DHT22;32931;47.778;17.806;2022-10-04T18:23:00;13.90;99.90
47168;DHT22;32931;47.778;17.806;2022-10-04T18:25:31;13.80;99.90
47168;DHT22;32931;47.778;17.806;2022-10-04T18:30:57;13.70;99.90
47168;DHT22;32931;47.778;17.806;2022-10-04T18:38:35;13.70;99.90
47168;DHT22;32931;47.778;17.806;2022-10-04T18:41:22;13.70;99.90
47168;DHT22;32931;47.778;17.806;2022-10-04T18:46:23;13.60;99.90
47168;DHT22;32931;47.778;17.806;2022-10-04T18:49:16;13.50;99.90
47168;DHT22;32931;47.778;17.806;2022-10-04T19:00:12;13.40;99.90
47168;DHT22;32931;47.778;17.806;2022-10-04T19:06:04;13.40;99.90
47168;DHT22;32931;47.778;17.806;2022-10-04T19:11:19;13.40;99.90
47168;DHT22;32931;47.778;17.806;2022-10-04T19:14:00;13.30;99.90
47168;DHT22;32931;47.778;17.806;2022-10-04T19:27:49;13.10;99.90
47168;DHT22;32931;47.778;17.806;2022-10-04T19:33:23;12.90;99.90
47168;DHT22;32931;47.778;17.806;2022-10-04T19:35:55;12.80;99.90
47168;DHT22;32931;47.778;17.806;2022-10-04T19:46:55;12.80;99.90
47168;DHT22;32931;47.778;17.806;2022-10-04T19:49:35;12.70;99.90
47168;DHT22;32931;47.778;17.806;2022-10-04T19:52:22;12.80;99.90
47168;DHT22;32931;47.778;17.806;2022-10-04T19:54:55;12.70;99.90
47168;DHT22;32931;47.778;17.806;2022-10-04T19:57:35;12.80;99.90
47168;DHT22;32931;47.778;17.806;2022-10-04T20:00:09;12.80;99.90
47168;DHT22;32931;47.778;17.806;2022-10-04T20:02:42;12.80;99.90
47168;DHT22;32931;47.778;17.806;2022-10-04T20:05:16;12.70;99.90
47168;DHT22;32931;47.778;17.806;2022-10-04T20:07:52;12.70;99.90
47168;DHT22;32931;47.778;17.806;2022-10-04T20:10:22;12.70;99.90
47168;DHT22;32931;47.778;17.806;2022-10-04T20:13:21;12.70;99.90
47168;DHT22;32931;47.778;17.806;2022-10-04T20:15:58;12.70;99.90
47168;DHT22;32931;47.778;17.806;2022-10-04T20:26:32;12.50;99.90
47168;DHT22;32931;47.778;17.806;2022-10-04T20:32:08;12.50;99.90
47168;DHT22;32931;47.778;17.806;2022-10-04T20:37:07;12.40;99.90
47168;DHT22;32931;47.778;17.806;2022-10-04T20:44:57;12.30;99.90
47168;DHT22;32931;47.778;17.806;2022-10-04T20:49:57;12.40;99.90
47168;DHT22;32931;47.778;17.806;2022-10-04T20:52:32;12.40;99.90
47168;DHT22;32931;47.778;17.806;2022-10-04T20:55:00;12.40;99.90
47168;DHT22;32931;47.778;17.806;2022-10-04T20:57:31;12.40;99.90
47168;DHT22;32931;47.778;17.806;2022-10-04T20:59:58;12.40;99.90
47168;DHT22;32931;47.778;17.806;2022-10-04T21:02:24;12.40;99.90
47168;DHT22;32931;47.778;17.806;2022-10-04T21:04:53;12.40;99.90
47168;DHT22;32931;47.778;17.806;2022-10-04T21:07:24;12.40;99.90
47168;DHT22;32931;47.778;17.806;2022-10-04T21:09:51;12.40;99.90
47168;DHT22;32931;47.778;17.806;2022-10-04T21:18:04;12.40;99.90
47168;DHT22;32931;47.778;17.806;2022-10-04T21:20:50;12.40;99.90
47168;DHT22;32931;47.778;17.806;2022-10-04T21:25:43;12.30;99.90
47168;DHT22;32931;47.778;17.806;2022-10-04T21:28:41;12.30;99.90
47168;DHT22;32931;47.778;17.806;2022-10-04T21:31:08;12.20;99.90
47168;DHT22;32931;47.778;17.806;2022-10-04T21:33:35;12.20;99.90
47168;DHT22;32931;47.778;17.806;2022-10-04T21:36:02;12.20;99.90
47168;DHT22;32931;47.778;17.806;2022-10-04T21:38:28;12.20;99.90
47168;DHT22;32931;47.778;17.806;2022-10-04T21:40:55;12.20;99.90
47168;DHT22;32931;47.778;17.806;2022-10-04T21:43:23;12.20;99.90
47168;DHT22;32931;47.778;17.806;2022-10-04T21:45:49;12.20;99.90
47168;DHT22;32931;47.778;17.806;2022-10-04T21:48:15;12.20;99.90
47168;DHT22;32931;47.778;17.806;2022-10-04T21:50:42;12.10;99.90
47168;DHT22;32931;47.778;17.806;2022-10-04T21:53:09;12.10;99.90
47168;DHT22;32931;47.778;17.806;2022-10-04T21:55:35;12.10;99.90
47168;DHT22;32931;47.778;17.806;2022-10-04T21:58:01;12.00;99.90
47168;DHT22;32931;47.778;17.806;2022-10-04T22:00:27;11.90;99.90
47168;DHT22;32931;47.778;17.806;2022-10-04T22:02:53;11.90;99.90
47168;DHT22;32931;47.778;17.806;2022-10-04T22:05:20;11.80;99.90
47168;DHT22;32931;47.778;17.806;2022-10-04T22:07:46;11.70;99.90
47168;DHT22;32931;47.778;17.806;2022-10-04T22:10:12;11.60;99.90
47168;DHT22;32931;47.778;17.806;2022-10-04T22:12:38;11.60;99.90
47168;DHT22;32931;47.778;17.806;2022-10-04T22:15:05;11.50;99.90
47168;DHT22;32931;47.778;17.806;2022-10-04T22:17:31;11.50;99.90
47168;DHT22;32931;47.778;17.806;2022-10-04T22:19:58;11.50;99.90
47168;DHT22;32931;47.778;17.806;2022-10-04T22:22:24;11.40;99.90
47168;DHT22;32931;47.778;17.806;2022-10-04T22:24:50;11.40;99.90
47168;DHT22;32931;47.778;17.806;2022-10-04T22:27:18;11.40;99.90
47168;DHT22;32931;47.778;17.806;2022-10-04T22:29:45;11.40;99.90
47168;DHT22;32931;47.778;17.806;2022-10-04T22:32:23;11.40;99.90
47168;DHT22;32931;47.778;17.806;2022-10-04T22:34:50;11.50;99.90
47168;DHT22;32931;47.778;17.806;2022-10-04T22:37:21;11.50;99.90
47168;DHT22;32931;47.778;17.806;2022-10-04T22:39:50;11.50;99.90
47168;DHT22;32931;47.778;17.806;2022-10-04T22:42:16;11.60;99.90
47168;DHT22;32931;47.778;17.806;2022-10-04T22:44:43;11.60;99.90
47168;DHT22;32931;47.778;17.806;2022-10-04T22:47:13;11.70;99.90
47168;DHT22;32931;47.778;17.806;2022-10-04T22:49:43;11.70;99.90
47168;DHT22;32931;47.778;17.806;2022-10-04T22:52:21;11.70;99.90
47168;DHT22;32931;47.778;17.806;2022-10-04T22:54:49;11.70;99.90
47168;DHT22;32931;47.778;17.806;2022-10-04T22:57:17;11.70;99.90
47168;DHT22;32931;47.778;17.806;2022-10-04T22:59:51;11.70;99.90
47168;DHT22;32931;47.778;17.806;2022-10-04T23:02:22;11.70;99.90
47168;DHT22;32931;47.778;17.806;2022-10-04T23:05:15;11.70;99.90
47168;DHT22;32931;47.778;17.806;2022-10-04T23:07:43;11.70;99.90
47168;DHT22;32931;47.778;17.806;2022-10-04T23:10:11;11.70;99.90
47168;DHT22;32931;47.778;17.806;2022-10-04T23:12:38;11.70;99.90
47168;DHT22;32931;47.778;17.806;2022-10-04T23:15:06;11.70;99.90
47168;DHT22;32931;47.778;17.806;2022-10-04T23:17:34;11.70;99.90
47168;DHT22;32931;47.778;17.806;2022-10-04T23:20:12;11.70;99.90
47168;DHT22;32931;47.778;17.806;2022-10-04T23:22:39;11.70;99.90
47168;DHT22;32931;47.778;17.806;2022-10-04T23:25:19;11.70;99.90
47168;DHT22;32931;47.778;17.806;2022-10-04T23:27:46;11.80;99.90
47168;DHT22;32931;47.778;17.806;2022-10-04T23:30:15;11.80;99.90
47168;DHT22;32931;47.778;17.806;2022-10-04T23:32:44;11.80;99.90
47168;DHT22;32931;47.778;17.806;2022-10-04T23:35:22;11.70;99.90
47168;DHT22;32931;47.778;17.806;2022-10-04T23:37:49;11.80;99.90
47168;DHT22;32931;47.778;17.806;2022-10-04T23:40:20;11.80;99.90
47168;DHT22;32931;47.778;17.806;2022-10-04T23:42:48;11.80;99.90
47168;DHT22;32931;47.778;17.806;2022-10-04T23:45:19;11.80;99.90
47168;DHT22;32931;47.778;17.806;2022-10-04T23:47:48;11.80;99.90
47168;DHT22;32931;47.778;17.806;2022-10-04T23:50:32;11.80;99.90
47168;DHT22;32931;47.778;17.806;2022-10-04T23:53:00;11.70;99.90
47168;DHT22;32931;47.778;17.806;2022-10-04T23:55:33;11.70;99.90
47168;DHT22;32931;47.778;17.806;2022-10-04T23:58:00;11.70;99.90
